This is the latest recevied weather packets stored in our database for station/object EW6780. If no packets are shown the sender has not sent any weather packets the latest 10 day(s).
| Time | Temp. | Humidity | Pressure | Rain* | Wind** | Luminosity | Snow |
|---|---|---|---|---|---|---|---|
| 1778182205 | 18.33° C | 35% | 1007.8 hPa | 0 mm | - | - | - |
| 1778181605 | 18.33° C | 34% | 1007.7 hPa | 0 mm | - | - | - |
| 1778181005 | 18.33° C | 34% | 1008.1 hPa | 0 mm | - | - | - |
| 1778180108 | 17.78° C | 36% | 1008.3 hPa | 0 mm | - | - | - |
| 1778179805 | 17.78° C | 35% | 1008.3 hPa | 0 mm | - | - | - |
| 1778179514 | 17.78° C | 36% | 1008.3 hPa | 0 mm | - | - | - |
| 1778179205 | 17.78° C | 34% | 1008.3 hPa | 0 mm | - | - | - |
| 1778178905 | 17.78° C | 35% | 1008.3 hPa | 0 mm | - | - | - |
| 1778178308 | 17.78° C | 35% | 1008.5 hPa | 0 mm | - | - | - |
| 1778176505 | 17.22° C | 35% | 1009 hPa | 0 mm | - | - | - |
| 1778176205 | 17.22° C | 36% | 1009.1 hPa | 0 mm | - | - | - |
| 1778174405 | 16.67° C | 38% | 1009.3 hPa | 0 mm | - | - | - |
| 1778173808 | 16.11° C | 37% | 1009.5 hPa | 0 mm | - | - | - |
| 1778173508 | 16.67° C | 37% | 1009.7 hPa | 0 mm | - | - | - |
| 1778172609 | 16.67° C | 40% | 1009.7 hPa | 0 mm | - | - | - |
| 1778172306 | 16.67° C | 39% | 1009.8 hPa | 0 mm | - | - | - |
| 1778172008 | 16.67° C | 40% | 1009.8 hPa | 0 mm | - | - | - |
| 1778171408 | 16.11° C | 40% | 1009.9 hPa | 0 mm | - | - | - |
| 1778171111 | 16.11° C | 38% | 1009.9 hPa | 0 mm | - | - | - |
| 1778168405 | 15° C | 42% | 1010.6 hPa | 0 mm | - | - | - |
| 1778167211 | 14.44° C | 39% | 1010.8 hPa | 0 mm | - | - | - |
| 1778166309 | 14.44° C | 42% | 1011 hPa | 0 mm | - | - | - |
| 1778164808 | 13.89° C | 48% | 1011.2 hPa | 0.25 mm | - | - | - |
| 1778163906 | 13.33° C | 51% | 1011.1 hPa | 0.25 mm | - | - | - |
| 1778162708 | 13.33° C | 58% | 1011.1 hPa | 0.25 mm | - | - | - |
* Rain latest hour (hover to see other rain measurements)
** Current wind speed in m/s (hover to see current wind gust speed)